Time;durP1;ratioP1;P1;durP2;ratioP2;P2;SDS_P1;SDS_P2;PMS_P1;PMS_P2;Temp;Humidity;BMP_temperature;BMP_pressure;BME280_temperature;BME280_humidity;BME280_pressure;Samples;Min_cycle;Max_cycle;Signal;HPM_P1;HPM_P2
2022/08/03 00:00:10;;;;;;;68.37;5.03;;;23.40;39.80;;;;;;5034885;28;20408;-86
2022/08/03 00:02:36;;;;;;;74.10;4.60;;;23.30;39.70;;;;;;5034741;28;20184;-86
2022/08/03 00:05:01;;;;;;;68.37;4.97;;;23.30;41.00;;;;;;5034775;28;20900;-85
2022/08/03 00:07:27;;;;;;;71.53;5.60;;;23.30;40.90;;;;;;5034328;28;20166;-86
2022/08/03 00:09:53;;;;;;;69.00;5.93;;;23.20;41.40;;;;;;5034326;28;20161;-85
2022/08/03 00:12:18;;;;;;;69.27;5.70;;;23.20;42.50;;;;;;5034357;28;20197;-85
2022/08/03 00:14:44;;;;;;;67.00;4.67;;;23.20;43.30;;;;;;5016490;28;20169;-85
2022/08/03 00:17:10;;;;;;;68.90;5.17;;;23.20;43.30;;;;;;5034425;28;20237;-85
2022/08/03 00:19:35;;;;;;;66.57;4.60;;;23.20;44.20;;;;;;5016326;28;20181;-85
2022/08/03 00:22:01;;;;;;;85.07;5.40;;;23.10;44.00;;;;;;5034188;28;20189;-86
2022/08/03 00:24:27;;;;;;;70.53;5.30;;;23.10;43.90;;;;;;5033901;28;20162;-85
2022/08/03 00:26:52;;;;;;;69.37;4.83;;;23.10;44.40;;;;;;5033938;28;20157;-85
2022/08/03 00:29:18;;;;;;;72.37;5.47;;;23.10;44.60;;;;;;5033881;28;20189;-86
2022/08/03 00:31:44;;;;;;;69.60;5.30;;;23.10;44.80;;;;;;5034029;28;20204;-85
2022/08/03 00:34:09;;;;;;;67.40;5.27;;;23.00;45.90;;;;;;5033956;28;20172;-85
2022/08/03 00:36:35;;;;;;;68.40;5.63;;;23.00;46.10;;;;;;5034018;28;20200;-85
2022/08/03 00:39:01;;;;;;;68.03;5.00;;;23.00;46.60;;;;;;5033960;28;20676;-85
2022/08/03 00:41:27;;;;;;;67.57;4.83;;;23.00;46.30;;;;;;5033683;28;20568;-85
2022/08/03 00:43:52;;;;;;;69.10;5.27;;;23.00;46.00;;;;;;5033697;28;20166;-86
2022/08/03 00:46:21;;;;;;;67.17;4.80;;;22.90;46.60;;;;;;5033678;28;20407;-86
2022/08/03 00:48:49;;;;;;;70.43;6.63;;;22.80;47.10;;;;;;5033708;28;20177;-86
2022/08/03 00:51:16;;;;;;;67.37;5.07;;;22.80;48.70;;;;;;5033847;28;20768;-86
2022/08/03 00:53:42;;;;;;;68.70;5.90;;;22.80;48.90;;;;;;5033407;28;20423;-86
2022/08/03 00:56:07;;;;;;;68.87;5.80;;;22.80;49.70;;;;;;5015850;28;20419;-86
2022/08/03 00:58:33;;;;;;;68.50;5.93;;;22.80;50.10;;;;;;5033584;28;20456;-86
2022/08/03 01:00:59;;;;;;;67.87;6.57;;;22.80;50.60;;;;;;5015789;28;20184;-86
2022/08/03 01:03:25;;;;;;;73.17;5.90;;;22.70;51.70;;;;;;5033570;28;20157;-86
2022/08/03 01:05:50;;;;;;;68.53;6.67;;;22.70;50.90;;;;;;5033787;28;20244;-86
2022/08/03 01:08:23;;;;;;;68.97;7.03;;;22.70;51.60;;;;;;5033465;28;20191;-86
2022/08/03 01:11:03;;;;;;;68.87;6.13;;;22.70;51.40;;;;;;5015679;28;20173;-86
2022/08/03 01:14:03;;;;;;;71.90;6.83;;;22.70;51.70;;;;;;5033650;28;20829;-86
2022/08/03 01:16:42;;;;;;;69.23;7.20;;;22.70;52.70;;;;;;5033671;28;20407;-86
2022/08/03 01:19:37;;;;;;;68.33;7.10;;;22.60;53.60;;;;;;5035528;28;20456;-86
2022/08/03 01:22:16;;;;;;;69.97;7.50;;;22.60;55.40;;;;;;5036646;28;20423;-86
2022/08/03 01:25:15;;;;;;;70.07;6.63;;;22.60;54.70;;;;;;5040616;28;20395;-86
2022/08/03 01:28:04;;;;;;;69.27;7.03;;;22.60;55.00;;;;;;5037950;28;20388;-86
2022/08/03 01:30:34;;;;;;;73.13;7.40;;;22.40;56.50;;;;;;5019126;28;20503;-86
2022/08/03 01:33:06;;;;;;;68.20;7.10;;;22.50;57.00;;;;;;5038578;28;20396;-86
2022/08/03 01:35:38;;;;;;;68.50;8.30;;;22.50;56.60;;;;;;5039116;28;20385;-85
2022/08/03 01:38:08;;;;;;;69.13;8.20;;;22.40;57.40;;;;;;5039514;28;20455;-86
2022/08/03 01:40:40;;;;;;;69.37;8.20;;;22.40;58.10;;;;;;5021320;28;20904;-86
2022/08/03 01:43:07;;;;;;;70.30;8.03;;;22.40;58.30;;;;;;5017897;28;20923;-86
2022/08/03 01:45:34;;;;;;;72.20;9.70;;;22.40;58.20;;;;;;5015604;28;20412;-86
2022/08/03 01:48:01;;;;;;;69.90;8.53;;;22.40;58.20;;;;;;5015578;28;20435;-85
2022/08/03 01:50:29;;;;;;;68.40;7.93;;;22.40;58.20;;;;;;5033447;28;20400;-86
2022/08/03 01:52:57;;;;;;;69.97;8.70;;;22.30;58.40;;;;;;5033448;28;21007;-86
2022/08/03 01:55:26;;;;;;;73.90;9.93;;;22.30;58.50;;;;;;5033397;28;20403;-86
2022/08/03 01:57:52;;;;;;;70.67;8.57;;;22.30;58.30;;;;;;5033174;28;20537;-86
2022/08/03 02:00:18;;;;;;;69.17;9.77;;;22.30;58.50;;;;;;5033002;28;20458;-86
2022/08/03 02:02:47;;;;;;;73.93;9.20;;;22.30;59.30;;;;;;5033131;28;20400;-86
2022/08/03 02:05:14;;;;;;;70.63;9.07;;;22.30;58.90;;;;;;5032986;28;20165;-86
2022/08/03 02:07:41;;;;;;;71.57;9.37;;;22.20;59.30;;;;;;5032997;28;20415;-86
2022/08/03 02:10:10;;;;;;;67.93;8.70;;;22.20;60.00;;;;;;5015145;28;20445;-86
2022/08/03 02:12:37;;;;;;;70.00;9.37;;;22.20;60.10;;;;;;5015191;28;20415;-86
2022/08/03 02:15:04;;;;;;;69.00;7.80;;;22.20;59.00;;;;;;5033037;28;20913;-86
2022/08/03 02:17:35;;;;;;;71.57;9.27;;;22.10;59.40;;;;;;5032863;28;20858;-86
2022/08/03 02:20:03;;;;;;;69.37;9.20;;;22.10;59.50;;;;;;5033341;28;20460;-86
2022/08/03 02:22:31;;;;;;;69.47;8.97;;;22.10;59.30;;;;;;5033101;28;20908;-86
2022/08/03 02:24:57;;;;;;;67.57;9.63;;;22.10;58.70;;;;;;5015066;28;20448;-86
2022/08/03 02:27:26;;;;;;;68.77;9.63;;;22.00;60.00;;;;;;5032681;28;20428;-86
2022/08/03 02:30:02;;;;;;;71.07;9.17;;;22.00;61.30;;;;;;5032774;28;20191;-86
2022/08/03 02:32:31;;;;;;;68.60;8.33;;;22.00;59.60;;;;;;5033046;28;20463;-86
2022/08/03 02:34:58;;;;;;;68.50;9.70;;;22.00;60.00;;;;;;5018189;28;20886;-86
2022/08/03 02:37:30;;;;;;;67.70;9.33;;;22.00;60.70;;;;;;5036067;28;20810;-86
2022/08/03 02:40:03;;;;;;;70.30;11.17;;;21.90;62.40;;;;;;5018671;28;20775;-86
2022/08/03 02:42:30;;;;;;;68.77;9.43;;;21.90;60.60;;;;;;5036016;28;20751;-86
2022/08/03 02:44:59;;;;;;;68.10;10.83;;;21.90;59.50;;;;;;5035987;28;20401;-86
2022/08/03 02:47:28;;;;;;;70.17;9.50;;;21.90;59.90;;;;;;5036347;28;20860;-86
2022/08/03 02:49:57;;;;;;;71.00;10.90;;;21.90;60.50;;;;;;5018188;28;20416;-86
2022/08/03 02:52:26;;;;;;;68.60;10.73;;;21.90;60.50;;;;;;5036353;28;20465;-86
2022/08/03 02:54:55;;;;;;;69.20;10.40;;;21.90;60.80;;;;;;5112070;22;20515;-84
2022/08/03 02:57:23;;;;;;;68.97;11.40;;;21.90;60.40;;;;;;5045425;28;20484;-84
2022/08/03 02:59:50;;;;;;;68.97;10.47;;;21.80;62.10;;;;;;5025503;28;20456;-84
2022/08/03 03:02:18;;;;;;;69.07;10.83;;;21.80;63.50;;;;;;5025606;28;20400;-84
2022/08/03 03:04:44;;;;;;;68.37;11.17;;;21.70;63.80;;;;;;5008123;28;20439;-84
2022/08/03 03:07:13;;;;;;;71.27;13.60;;;21.70;66.50;;;;;;5025457;28;20401;-84
2022/08/03 03:09:39;;;;;;;68.30;10.83;;;21.70;65.60;;;;;;5025724;28;20475;-84
2022/08/03 03:12:08;;;;;;;69.23;11.87;;;21.60;67.80;;;;;;5007640;28;20511;-84
2022/08/03 03:14:36;;;;;;;68.37;10.10;;;21.60;67.90;;;;;;5008482;28;20413;-84
2022/08/03 03:17:03;;;;;;;67.97;11.60;;;21.50;72.60;;;;;;4991475;28;20405;-84
2022/08/03 03:19:34;;;;;;;68.93;10.27;;;21.50;70.80;;;;;;5025015;28;20472;-84
2022/08/03 03:22:02;;;;;;;68.00;9.97;;;21.50;72.20;;;;;;5023933;28;20461;-85
2022/08/03 03:24:29;;;;;;;69.20;11.03;;;21.40;73.10;;;;;;5025874;28;20490;-84
2022/08/03 03:26:56;;;;;;;69.37;12.20;;;21.50;71.00;;;;;;5025248;28;20856;-84
2022/08/03 03:29:22;;;;;;;69.67;10.83;;;21.40;72.60;;;;;;5025192;28;20425;-84
2022/08/03 03:31:48;;;;;;;68.37;9.80;;;21.40;72.20;;;;;;5025243;28;20409;-84
2022/08/03 03:34:14;;;;;;;69.47;10.40;;;21.40;74.50;;;;;;5024779;28;20436;-84
2022/08/03 03:36:40;;;;;;;68.67;10.37;;;21.40;73.50;;;;;;5025122;28;20968;-84
2022/08/03 03:39:06;;;;;;;71.13;10.67;;;21.50;71.60;;;;;;5023880;28;20484;-84
2022/08/03 03:41:34;;;;;;;70.40;11.60;;;21.50;71.00;;;;;;5025165;28;20166;-84
2022/08/03 03:44:00;;;;;;;68.37;8.50;;;21.50;71.00;;;;;;5023767;28;20660;-84
2022/08/03 03:46:26;;;;;;;68.40;10.00;;;21.50;70.10;;;;;;5024547;28;20483;-84
2022/08/03 03:48:52;;;;;;;68.77;9.13;;;21.50;69.50;;;;;;5007585;28;20485;-84
2022/08/03 03:51:18;;;;;;;70.23;10.83;;;21.50;69.40;;;;;;5025182;28;20245;-84
2022/08/03 03:54:01;;;;;;;68.73;10.30;;;21.50;69.80;;;;;;5024862;28;20273;-84
2022/08/03 03:56:27;;;;;;;68.83;10.00;;;21.50;70.20;;;;;;5023986;28;20170;-84
2022/08/03 03:58:55;;;;;;;68.67;8.87;;;21.50;69.60;;;;;;5024479;28;20448;-84
2022/08/03 04:01:20;;;;;;;66.83;8.90;;;21.40;72.50;;;;;;5024529;28;21038;-84
2022/08/03 04:03:46;;;;;;;69.60;9.83;;;21.30;74.60;;;;;;5024682;28;20409;-84
2022/08/03 04:11:48;;;;;;;69.27;9.07;;;21.30;75.90;;;;;;5024054;28;20398;-84
2022/08/03 04:14:17;;;;;;;68.90;10.13;;;21.30;75.50;;;;;;5006761;28;20409;-84
2022/08/03 04:16:50;;;;;;;68.30;10.30;;;21.30;77.90;;;;;;5006720;28;20405;-84
2022/08/03 04:19:27;;;;;;;67.87;9.10;;;21.20;78.70;;;;;;5023499;28;20456;-84
2022/08/03 04:21:57;;;;;;;68.77;9.10;;;21.20;80.60;;;;;;5024365;28;20385;-84
2022/08/03 04:24:29;;;;;;;66.80;7.80;;;21.10;82.40;;;;;;5022640;28;20908;-84
2022/08/03 04:26:57;;;;;;;67.87;7.57;;;21.10;82.20;;;;;;5025112;28;20865;-84
2022/08/03 04:29:25;;;;;;;66.30;7.80;;;21.10;82.00;;;;;;5023880;28;20443;-84
2022/08/03 04:31:53;;;;;;;68.90;8.80;;;21.10;82.30;;;;;;5024230;28;20409;-84
2022/08/03 04:34:18;;;;;;;69.27;9.20;;;21.20;80.80;;;;;;5023158;28;20405;-84
2022/08/03 04:36:49;;;;;;;67.67;8.83;;;21.30;78.00;;;;;;5005801;28;20496;-84
2022/08/03 04:39:24;;;;;;;70.17;8.40;;;21.40;76.10;;;;;;5006373;28;20312;-84
2022/08/03 04:41:54;;;;;;;67.37;8.30;;;21.30;77.40;;;;;;5006629;28;20405;-84
2022/08/03 04:44:23;;;;;;;67.70;8.23;;;21.30;77.90;;;;;;5023472;28;20397;-84
2022/08/03 04:46:50;;;;;;;68.07;8.00;;;21.30;79.20;;;;;;5006464;28;20412;-84
2022/08/03 04:49:16;;;;;;;67.90;7.60;;;21.40;78.40;;;;;;5006197;28;20436;-85
2022/08/03 04:51:43;;;;;;;70.90;8.40;;;21.50;81.00;;;;;;5023701;28;20412;-84
2022/08/03 04:54:13;;;;;;;69.50;9.77;;;21.70;78.80;;;;;;5023329;28;20796;-84
2022/08/03 04:56:44;;;;;;;67.33;8.40;;;21.80;74.60;;;;;;5022248;28;20405;-84
2022/08/03 04:59:11;;;;;;;69.80;9.33;;;21.80;72.10;;;;;;5022589;28;20460;-84
2022/08/03 05:01:38;;;;;;;67.93;7.73;;;21.80;70.90;;;;;;5023296;28;20413;-84
2022/08/03 05:04:07;;;;;;;67.40;8.37;;;21.90;68.40;;;;;;5023265;28;20817;-84
2022/08/03 05:06:33;;;;;;;68.60;7.70;;;21.90;67.30;;;;;;5023460;28;20404;-84
2022/08/03 05:08:58;;;;;;;67.00;7.97;;;21.90;66.30;;;;;;5022503;28;20524;-84
2022/08/03 05:11:24;;;;;;;67.80;8.73;;;21.90;67.10;;;;;;5023173;28;20170;-84
2022/08/03 05:13:50;;;;;;;68.87;9.10;;;21.90;67.30;;;;;;5022945;28;20220;-84
2022/08/03 05:16:16;;;;;;;71.80;7.83;;;21.80;67.00;;;;;;5218086;22;20233;-83
2022/08/03 05:18:42;;;;;;;66.30;6.90;;;21.80;69.20;;;;;;5270816;22;20567;-84
2022/08/03 05:21:08;;;;;;;69.00;9.03;;;21.80;68.30;;;;;;5043309;28;20220;-84
2022/08/03 05:23:34;;;;;;;67.50;7.43;;;21.90;68.60;;;;;;5043465;28;20407;-84
2022/08/03 05:26:00;;;;;;;67.50;8.43;;;21.90;68.70;;;;;;5042349;28;20394;-84
2022/08/03 05:28:26;;;;;;;66.50;8.00;;;21.80;69.40;;;;;;5042943;28;20499;-84
2022/08/03 05:30:52;;;;;;;71.57;9.37;;;21.70;72.00;;;;;;5043170;28;20392;-84
2022/08/03 05:33:18;;;;;;;66.97;7.70;;;21.60;72.50;;;;;;5043132;28;20248;-84
2022/08/03 05:35:43;;;;;;;72.17;8.40;;;21.60;74.20;;;;;;5024922;28;20169;-84
2022/08/03 05:38:09;;;;;;;68.60;8.67;;;21.60;72.80;;;;;;5042734;28;20205;-84
2022/08/03 05:40:35;;;;;;;66.67;7.73;;;21.70;72.70;;;;;;5043159;28;20215;-84
2022/08/03 05:43:01;;;;;;;70.73;8.87;;;21.60;74.00;;;;;;5025770;28;20573;-84
2022/08/03 05:45:26;;;;;;;70.60;9.40;;;21.60;73.10;;;;;;5024051;28;20172;-83
2022/08/03 05:47:52;;;;;;;68.67;9.07;;;21.60;73.10;;;;;;5042346;28;20759;-84
2022/08/03 05:50:19;;;;;;;70.80;9.90;;;21.50;73.00;;;;;;5043267;28;20161;-84
2022/08/03 05:52:45;;;;;;;69.73;7.87;;;21.50;73.50;;;;;;5026098;28;20169;-84
2022/08/03 05:55:12;;;;;;;69.17;9.17;;;21.60;73.20;;;;;;5044128;28;20485;-84
2022/08/03 05:57:38;;;;;;;69.70;8.37;;;21.60;73.10;;;;;;5022116;28;20440;-83
2022/08/03 06:00:07;;;;;;;74.10;8.90;;;21.60;71.40;;;;;;5040779;28;20459;-83
2022/08/03 06:02:33;;;;;;;69.37;9.00;;;21.60;74.50;;;;;;5040285;28;20396;-83
2022/08/03 06:04:59;;;;;;;68.47;8.93;;;21.70;73.80;;;;;;5039491;28;20397;-83
2022/08/03 06:07:25;;;;;;;68.70;9.80;;;21.70;70.50;;;;;;5040416;28;20426;-82
2022/08/03 06:09:51;;;;;;;70.13;8.60;;;21.70;71.60;;;;;;5043079;28;20403;-83
2022/08/03 06:12:16;;;;;;;68.37;8.53;;;21.80;68.80;;;;;;5043839;28;20449;-82
2022/08/03 06:14:42;;;;;;;69.53;8.53;;;21.90;71.80;;;;;;5044212;28;20188;-83
2022/08/03 06:17:08;;;;;;;71.47;8.80;;;22.00;68.90;;;;;;5044768;28;20162;-83
2022/08/03 06:19:33;;;;;;;68.30;7.60;;;22.00;68.40;;;;;;5044121;28;20205;-83
2022/08/03 06:21:59;;;;;;;67.67;6.93;;;21.90;73.20;;;;;;5043332;28;20181;-85
2022/08/03 06:24:25;;;;;;;72.60;8.57;;;22.00;72.90;;;;;;5044083;28;20165;-83
2022/08/03 06:26:50;;;;;;;70.27;7.57;;;22.00;73.80;;;;;;5042626;28;20248;-83
2022/08/03 06:29:16;;;;;;;68.80;8.13;;;22.10;72.40;;;;;;5026420;28;20186;-83
2022/08/03 06:31:42;;;;;;;79.80;8.30;;;22.20;68.10;;;;;;5043491;28;20173;-83
2022/08/03 06:34:07;;;;;;;70.03;7.83;;;22.30;71.20;;;;;;5026135;28;20200;-83
2022/08/03 06:36:33;;;;;;;77.23;8.20;;;22.30;73.00;;;;;;5043744;28;20215;-83
2022/08/03 06:38:59;;;;;;;74.53;6.80;;;22.30;71.30;;;;;;5043958;28;20228;-83
2022/08/03 06:41:28;;;;;;;68.37;8.23;;;22.30;72.30;;;;;;5044926;28;20165;-83
2022/08/03 06:43:54;;;;;;;67.90;7.70;;;22.40;69.30;;;;;;5026578;28;20412;-83
2022/08/03 06:46:21;;;;;;;68.97;6.90;;;22.50;66.20;;;;;;5045361;28;20402;-83
2022/08/03 06:48:47;;;;;;;70.97;8.20;;;22.60;64.30;;;;;;5028795;28;20446;-83
2022/08/03 06:51:13;;;;;;;71.97;7.60;;;22.60;60.00;;;;;;5045338;28;20392;-83
2022/08/03 06:53:39;;;;;;;69.40;8.47;;;22.70;61.20;;;;;;5026772;28;20915;-84
2022/08/03 06:56:05;;;;;;;68.57;9.77;;;22.70;57.80;;;;;;5044742;28;20432;-83
2022/08/03 06:58:31;;;;;;;67.97;9.00;;;22.80;57.40;;;;;;5042045;28;20201;-84
2022/08/03 07:00:57;;;;;;;70.40;7.97;;;22.90;56.80;;;;;;5024540;28;20493;-84
2022/08/03 07:03:22;;;;;;;67.13;7.40;;;22.80;56.80;;;;;;5042131;28;20176;-84
2022/08/03 07:05:49;;;;;;;76.53;8.67;;;22.90;57.10;;;;;;5042090;28;20166;-83
2022/08/03 07:08:15;;;;;;;68.43;8.77;;;23.00;56.30;;;;;;5041531;28;20200;-83
2022/08/03 07:10:41;;;;;;;72.60;9.33;;;23.10;53.40;;;;;;5041212;28;20412;-82
2022/08/03 07:13:06;;;;;;;72.13;9.00;;;23.10;53.70;;;;;;5042262;28;20629;-83
2022/08/03 07:15:33;;;;;;;70.70;9.20;;;23.20;53.70;;;;;;5042511;28;20173;-85
2022/08/03 07:17:59;;;;;;;70.20;10.17;;;23.30;54.30;;;;;;5042258;28;20224;-83
2022/08/03 07:20:25;;;;;;;75.10;9.00;;;23.30;50.60;;;;;;5041745;28;20401;-84
2022/08/03 07:22:50;;;;;;;74.20;10.77;;;23.40;52.60;;;;;;5041234;28;20162;-85
2022/08/03 07:25:16;;;;;;;83.33;9.57;;;23.40;50.40;;;;;;5041919;28;20166;-84
2022/08/03 07:27:46;;;;;;;76.33;9.63;;;23.50;49.60;;;;;;5041404;28;20536;-85
2022/08/03 07:30:13;;;;;;;78.40;8.63;;;23.60;50.10;;;;;;5041249;28;20173;-84
2022/08/03 07:32:39;;;;;;;69.50;7.33;;;23.70;43.70;;;;;;5041407;28;20408;-84
2022/08/03 07:35:06;;;;;;;70.50;7.90;;;23.80;43.20;;;;;;5023844;28;20416;-84
2022/08/03 07:37:31;;;;;;;72.37;9.30;;;23.80;45.10;;;;;;5023712;28;20423;-83
2022/08/03 07:39:58;;;;;;;67.80;7.80;;;23.90;44.70;;;;;;5023460;28;20420;-84
2022/08/03 07:42:25;;;;;;;69.77;6.50;;;24.00;41.30;;;;;;5041485;28;20407;-84
2022/08/03 07:44:51;;;;;;;68.40;5.67;;;24.10;35.60;;;;;;5023805;28;20418;-83
2022/08/03 07:47:30;;;;;;;67.10;6.37;;;24.20;35.80;;;;;;5042075;28;20423;-84
2022/08/03 07:49:56;;;;;;;75.63;6.10;;;24.30;36.80;;;;;;5043539;28;20156;-84
2022/08/03 07:55:08;;;;;;;72.90;5.30;;;24.40;36.20;;;;;;5041721;28;20379;-83
2022/08/03 07:57:34;;;;;;;70.30;4.20;;;24.40;32.90;;;;;;5041263;28;20854;-83
2022/08/03 08:00:00;;;;;;;69.63;3.80;;;24.50;29.90;;;;;;5041301;28;20420;-84
2022/08/03 08:02:26;;;;;;;68.47;4.47;;;24.50;29.10;;;;;;5040754;28;20411;-84
2022/08/03 08:04:52;;;;;;;68.73;4.33;;;24.60;29.30;;;;;;5041621;28;20407;-83
2022/08/03 08:07:18;;;;;;;68.90;4.37;;;24.70;29.20;;;;;;5041043;28;20626;-83
2022/08/03 08:09:43;;;;;;;69.40;3.80;;;24.80;27.70;;;;;;5041312;28;20199;-83
2022/08/03 08:12:11;;;;;;;67.83;4.00;;;24.80;24.70;;;;;;5041929;28;20171;-84
2022/08/03 08:14:37;;;;;;;67.07;3.73;;;24.90;24.10;;;;;;5040930;28;20175;-84
2022/08/03 08:17:03;;;;;;;69.30;3.83;;;25.00;23.70;;;;;;5041741;28;20897;-84
2022/08/03 08:19:29;;;;;;;71.23;3.83;;;25.00;21.30;;;;;;5040260;28;20497;-84
2022/08/03 08:21:54;;;;;;;68.60;4.00;;;25.10;18.50;;;;;;5040738;28;20764;-83
2022/08/03 08:24:20;;;;;;;69.53;4.73;;;25.20;16.50;;;;;;5040674;28;20168;-84
2022/08/03 08:26:46;;;;;;;71.00;3.73;;;25.40;16.50;;;;;;5041502;28;20175;-84
2022/08/03 08:29:12;;;;;;;72.07;5.30;;;25.60;13.60;;;;;;5041826;28;20192;-83
2022/08/03 08:31:37;;;;;;;68.30;4.40;;;25.60;10.10;;;;;;5040673;28;20179;-83
2022/08/03 08:34:04;;;;;;;71.90;3.90;;;25.80;3.90;;;;;;5023501;28;20183;-82
2022/08/03 08:39:03;;;;;;;71.70;4.10;;;25.80;4.10;;;;;;5457649;22;20500;-83
2022/08/03 08:41:32;;;;;;;70.73;4.43;;;25.80;3.60;;;;;;5063846;22;20490;-83
2022/08/03 08:43:58;;;;;;;68.37;3.90;;;25.80;1.00;;;;;;5070527;28;20168;-83
2022/08/03 08:46:24;;;;;;;69.67;4.00;;;25.80;3.00;;;;;;5070135;28;20754;-83
2022/08/03 08:48:50;;;;;;;69.47;3.80;;;25.90;1.00;;;;;;5052826;28;20249;-83
2022/08/03 08:51:19;;;;;;;68.20;3.77;;;26.00;1.00;;;;;;5070494;28;20402;-83
2022/08/03 08:53:50;;;;;;;77.00;4.00;;;26.10;1.00;;;;;;5135427;22;21046;-85
2022/08/03 08:56:17;;;;;;;72.10;4.50;;;26.30;1.00;;;;;;5053705;28;20404;-85
2022/08/03 08:58:50;;;;;;;66.77;3.40;;;26.40;1.00;;;;;;5053847;28;20498;-84
2022/08/03 09:01:19;;;;;;;67.23;3.60;;;26.60;1.00;;;;;;5036110;28;20434;-85
2022/08/03 09:03:45;;;;;;;67.97;3.37;;;26.80;1.00;;;;;;5035741;28;20417;-85
2022/08/03 09:06:11;;;;;;;68.40;3.80;;;26.90;1.00;;;;;;5053797;28;20403;-85
2022/08/03 09:08:37;;;;;;;69.43;3.27;;;26.80;1.00;;;;;;5053479;28;20446;-85
2022/08/03 09:11:03;;;;;;;69.43;3.30;;;26.90;1.00;;;;;;5053924;28;20256;-85
2022/08/03 09:16:13;;;;;;;66.47;3.30;;;27.40;1.00;;;;;;5188594;22;20830;-85
2022/08/03 09:18:40;;;;;;;70.37;4.30;;;27.50;1.00;;;;;;5033064;28;20513;-85
2022/08/03 09:21:12;;;;;;;66.83;3.90;;;27.50;1.00;;;;;;5033256;28;20487;-85
2022/08/03 09:23:45;;;;;;;66.67;2.77;;;27.50;1.00;;;;;;5015977;28;20404;-85
2022/08/03 09:26:25;;;;;;;69.60;3.60;;;27.50;1.00;;;;;;5015814;28;20411;-85
2022/08/03 09:28:59;;;;;;;67.77;3.03;;;27.50;1.00;;;;;;5033596;28;20424;-84
2022/08/03 09:31:42;;;;;;;68.67;3.60;;;27.50;1.00;;;;;;5033660;28;20775;-85
2022/08/03 09:34:10;;;;;;;67.57;3.27;;;27.60;1.00;;;;;;5015544;28;20408;-85
2022/08/03 09:36:43;;;;;;;73.00;3.87;;;27.70;1.00;;;;;;5033531;28;20828;-85
2022/08/03 09:39:20;;;;;;;68.37;3.10;;;27.80;1.00;;;;;;5033229;28;20458;-85
2022/08/03 09:42:06;;;;;;;68.70;2.90;;;28.00;1.00;;;;;;5016120;28;20751;-84
2022/08/03 09:44:42;;;;;;;68.67;3.30;;;28.20;1.00;;;;;;5038018;28;20411;-85
2022/08/03 09:47:09;;;;;;;68.90;3.17;;;28.20;1.00;;;;;;5037068;28;20403;-85
2022/08/03 09:49:42;;;;;;;68.67;3.10;;;28.20;1.00;;;;;;5037228;28;20502;-85
2022/08/03 09:52:21;;;;;;;69.67;2.27;;;28.20;1.00;;;;;;5037405;28;20400;-85
2022/08/03 09:54:51;;;;;;;68.90;2.13;;;28.30;1.00;;;;;;5019270;28;20415;-85
2022/08/03 09:57:24;;;;;;;68.33;2.50;;;28.40;1.00;;;;;;5037189;28;20851;-85
2022/08/03 09:59:52;;;;;;;67.20;2.43;;;28.60;1.00;;;;;;5036976;28;20408;-85
2022/08/03 10:02:25;;;;;;;66.57;2.70;;;28.70;1.00;;;;;;5037206;28;20798;-85
2022/08/03 10:04:52;;;;;;;68.87;2.53;;;28.90;1.00;;;;;;5036665;28;20766;-86
2022/08/03 10:07:20;;;;;;;68.57;2.90;;;29.00;1.00;;;;;;5019133;28;20412;-85
2022/08/03 10:10:00;;;;;;;75.03;3.28;;;29.10;1.00;;;;;;5035603;28;20401;-85
